Linda — OJML — position and weather

sailwx.info

Track history (hours):
 
Tides and Currents Weather Stations Pressure Air Temp Water Temp Dewpoint Dewpoint Depression Visibility Wind Speed Wind Dir Waves Ship Positions

Linda

Last reported at 2017-Mar-29 20:33 UTC. Time now 2017-Mar-30 08:47 UTC.
Position N 54°25' E 005°28'.

Length 141 m; draft 8.2 m.

Type: Ship (hazmat cat A). MMSI: 230984000.

Date/timePositionNaut miles runAvg speedWind from/ knotsBaromVisibWave heightAir tempDewpointWater temp
2017-Mar-29 20:33N 54°25' E 005°28'1817.6
2017-Mar-29 19:32N 54°10' E 005°12'7617.8
2017-Mar-29 15:16N 53°00' E 004°21'1317.8
2017-Mar-29 14:33N 52°49' E 004°12'1717.4
2017-Mar-29 13:33N 52°34' E 003°58'1716.4
2017-Mar-29 12:33N 52°17' E 003°52'1515.3
2017-Mar-29 11:34N 52°02' E 003°55'1515.3
2017-Mar-29 10:33N 51°54' E 004°16'6 5.7
2017-Mar-29 09:32N 51°53' E 004°25'0 0.0
2017-Mar-29 08:32N 51°53' E 004°25'0 0.0
2017-Mar-29 07:32N 51°53' E 004°25'0 0.0
2017-Mar-29 06:32N 51°53' E 004°25'0 0.0
2017-Mar-29 05:32N 51°53' E 004°25'0 0.0
2017-Mar-29 04:32N 51°53' E 004°25'0 0.0
2017-Mar-29 03:32N 51°53' E 004°25'0 0.0
2017-Mar-29 02:32N 51°53' E 004°25'0 0.0
2017-Mar-29 01:32N 51°53' E 004°25'0 0.0
2017-Mar-29 00:32N 51°53' E 004°25'0 0.0
2017-Mar-28 23:32N 51°53' E 004°25'0 0.0
2017-Mar-28 22:32N 51°53' E 004°25'0 0.0
2017-Mar-28 21:32N 51°53' E 004°25'0 0.0
2017-Mar-28 20:32N 51°53' E 004°25'0 0.0
2017-Mar-28 19:32N 51°53' E 004°25'0 0.0
2017-Mar-28 18:32N 51°53' E 004°25'0 0.0
2017-Mar-28 17:32N 51°53' E 004°25'0 0.0
2017-Mar-28 16:32N 51°53' E 004°25'0 0.0
2017-Mar-28 15:32N 51°53' E 004°25'0 0.0
2017-Mar-28 14:32N 51°53' E 004°25'0 0.0
2017-Mar-28 13:32N 51°53' E 004°25'0 0.0
2017-Mar-28 12:32N 51°53' E 004°25'0 0.1
2017-Mar-28 11:33N 51°53' E 004°25'8 8.3
2017-Mar-28 10:33N 51°56' E 004°13'1414.0
2017-Mar-28 09:33N 52°00' E 003°51'1515.0
2017-Mar-28 08:33N 52°08' E 003°29'1917.4
2017-Mar-28 07:26N 52°19' E 003°04'1618.0
2017-Mar-28 06:33N 52°29' E 002°44'1817.7
2017-Mar-28 05:33N 52°41' E 002°22'1716.7
2017-Mar-28 04:33N 52°52' E 002°01'1616.0
2017-Mar-28 03:33N 53°02' E 001°40'1615.3
2017-Mar-28 02:33N 53°12' E 001°20'1515.2
2017-Mar-28 01:33N 53°24' E 001°06'1615.4
2017-Mar-28 00:30N 53°38' E 000°51'2115.3
2017-Mar-27 23:07N 53°54' E 000°28'915.5
2017-Mar-27 22:34N 54°01' E 000°19'1515.3
2017-Mar-27 21:33N 54°12' E 000°01'1515.5
2017-Mar-27 20:33N 54°23' W 000°17'33 2.1
2017-Mar-27 04:33N 54°37' W 001°09'12 9.4
2017-Mar-27 03:16N 54°45' W 000°54'811.5
2017-Mar-27 02:32N 54°49' W 000°41'1211.7
2017-Mar-27 01:32N 54°53' W 000°22'1313.4
2017-Mar-27 00:33N 54°59' W 000°02'3113.8
2017-Mar-26 22:19N 55°13' E 000°46'1013.7
2017-Mar-26 21:33N 55°18' E 001°03'32115.2
2017-Mar-26 00:23N 57°38' E 009°46'1616.0
2017-Mar-25 23:21N 57°44' E 010°14'1316.0
2017-Mar-25 22:33N 57°48' E 010°37'1615.5
2017-Mar-25 21:33N 57°40' E 011°02'1716.8
2017-Mar-25 20:33N 57°28' E 011°25'1616.3
2017-Mar-25 19:33N 57°13' E 011°35'1716.7
2017-Mar-25 18:33N 56°57' E 011°46'1515.5
2017-Mar-25 17:33N 56°42' E 011°50'9215.4
2017-Mar-25 11:33N 55°13' E 011°06'1616.0
2017-Mar-25 10:33N 54°58' E 010°59'1615.5
2017-Mar-25 09:33N 54°43' E 010°53'1616.2
2017-Mar-25 08:33N 54°34' E 011°17'1616.4
2017-Mar-25 07:33N 54°28' E 011°43'1616.1
2017-Mar-25 06:33N 54°27' E 012°11'1715.3
2017-Mar-25 05:28N 54°41' E 012°27'1516.0
2017-Mar-25 04:32N 54°49' E 012°49'3316.5
2017-Mar-25 02:32N 55°00' E 013°42'1716.1
2017-Mar-25 01:29N 55°08' E 014°08'1616.7
2017-Mar-25 00:33N 55°20' E 014°26'1616.4
2017-Mar-24 23:33N 55°31' E 014°47'1616.4
2017-Mar-24 22:33N 55°39' E 015°13'1716.5
2017-Mar-24 21:33N 55°47' E 015°38'1616.5
2017-Mar-24 20:33N 55°55' E 016°04'1616.1
2017-Mar-24 19:33N 56°03' E 016°29'1616.1
2017-Mar-24 18:33N 56°12' E 016°53'1616.2
2017-Mar-24 17:33N 56°22' E 017°16'  
2017-Mar-21 01:16N 59°60' E 026°19'1115.1
2017-Mar-21 00:33N 60°01' E 026°40'4814.4
2017-Mar-20 21:15N 60°08' E 028°14'1115.0
2017-Mar-20 20:33N 60°03' E 028°33'2814.1
2017-Mar-20 18:33N 60°02' E 029°29'7 6.9
2017-Mar-20 17:32N 60°00' E 029°43'0 0.3
2017-Mar-20 16:32N 60°00' E 029°43'0 0.0
2017-Mar-20 15:32N 60°00' E 029°43'0 0.0
2017-Mar-20 14:29N 60°00' E 029°43'0 0.0
2017-Mar-20 12:32N 60°00' E 029°43'0 0.0
2017-Mar-20 10:08N 60°00' E 029°43'0 0.0
2017-Mar-20 09:32N 60°00' E 029°43'0 0.0
2017-Mar-20 08:32N 60°00' E 029°43'0 0.0
2017-Mar-20 07:32N 60°00' E 029°43'0 0.0
2017-Mar-20 06:29N 60°00' E 029°43'1 0.6
2017-Mar-20 05:32N 59°60' E 029°43'0 0.4
2017-Mar-20 04:34N 59°59' E 029°42'10 9.3
2017-Mar-20 03:26N 60°02' E 029°22'1011.7
2017-Mar-20 02:33N 60°02' E 029°01'1212.5
2017-Mar-20 01:33N 60°02' E 028°36'1313.0
2017-Mar-20 00:33N 60°08' E 028°12'1413.7
2017-Mar-19 23:33N 60°10' E 027°45'1414.0
2017-Mar-19 22:33N 60°03' E 027°21'1812.8
2017-Mar-19 21:08N 59°59' E 026°46'915.5
2017-Mar-19 20:33N 59°58' E 026°28'  
Track history (hours):
 
Tides and Currents Weather Stations Pressure Air Temp Water Temp Dewpoint Dewpoint Depression Visibility Wind Speed Wind Dir Waves Ship Positions

Linda

Last reported at 2017-Mar-29 20:33 UTC. Time now 2017-Mar-30 08:47 UTC.
Position N 54°25' E 005°28'.

Length 141 m; draft 8.2 m.

Type: Ship (hazmat cat A). MMSI: 230984000.

Date/timePositionNaut miles runAvg speedWind from/ knotsBaromVisibWave heightAir tempDewpointWater temp
2017-Mar-29 20:33N 54°25' E 005°28'1817.6
2017-Mar-29 19:32N 54°10' E 005°12'7617.8
2017-Mar-29 15:16N 53°00' E 004°21'1317.8
2017-Mar-29 14:33N 52°49' E 004°12'1717.4
2017-Mar-29 13:33N 52°34' E 003°58'1716.4
2017-Mar-29 12:33N 52°17' E 003°52'1515.3
2017-Mar-29 11:34N 52°02' E 003°55'1515.3
2017-Mar-29 10:33N 51°54' E 004°16'6 5.7
2017-Mar-29 09:32N 51°53' E 004°25'0 0.0
2017-Mar-29 08:32N 51°53' E 004°25'0 0.0
2017-Mar-29 07:32N 51°53' E 004°25'0 0.0
2017-Mar-29 06:32N 51°53' E 004°25'0 0.0
2017-Mar-29 05:32N 51°53' E 004°25'0 0.0
2017-Mar-29 04:32N 51°53' E 004°25'0 0.0
2017-Mar-29 03:32N 51°53' E 004°25'0 0.0
2017-Mar-29 02:32N 51°53' E 004°25'0 0.0
2017-Mar-29 01:32N 51°53' E 004°25'0 0.0
2017-Mar-29 00:32N 51°53' E 004°25'0 0.0
2017-Mar-28 23:32N 51°53' E 004°25'0 0.0
2017-Mar-28 22:32N 51°53' E 004°25'0 0.0
2017-Mar-28 21:32N 51°53' E 004°25'0 0.0
2017-Mar-28 20:32N 51°53' E 004°25'0 0.0
2017-Mar-28 19:32N 51°53' E 004°25'0 0.0
2017-Mar-28 18:32N 51°53' E 004°25'0 0.0
2017-Mar-28 17:32N 51°53' E 004°25'0 0.0
2017-Mar-28 16:32N 51°53' E 004°25'0 0.0
2017-Mar-28 15:32N 51°53' E 004°25'0 0.0
2017-Mar-28 14:32N 51°53' E 004°25'0 0.0
2017-Mar-28 13:32N 51°53' E 004°25'0 0.0
2017-Mar-28 12:32N 51°53' E 004°25'0 0.1
2017-Mar-28 11:33N 51°53' E 004°25'8 8.3
2017-Mar-28 10:33N 51°56' E 004°13'1414.0
2017-Mar-28 09:33N 52°00' E 003°51'1515.0
2017-Mar-28 08:33N 52°08' E 003°29'1917.4
2017-Mar-28 07:26N 52°19' E 003°04'1618.0
2017-Mar-28 06:33N 52°29' E 002°44'1817.7
2017-Mar-28 05:33N 52°41' E 002°22'1716.7
2017-Mar-28 04:33N 52°52' E 002°01'1616.0
2017-Mar-28 03:33N 53°02' E 001°40'1615.3
2017-Mar-28 02:33N 53°12' E 001°20'1515.2
2017-Mar-28 01:33N 53°24' E 001°06'1615.4
2017-Mar-28 00:30N 53°38' E 000°51'2115.3
2017-Mar-27 23:07N 53°54' E 000°28'915.5
2017-Mar-27 22:34N 54°01' E 000°19'1515.3
2017-Mar-27 21:33N 54°12' E 000°01'1515.5
2017-Mar-27 20:33N 54°23' W 000°17'33 2.1
2017-Mar-27 04:33N 54°37' W 001°09'12 9.4
2017-Mar-27 03:16N 54°45' W 000°54'811.5
2017-Mar-27 02:32N 54°49' W 000°41'1211.7
2017-Mar-27 01:32N 54°53' W 000°22'1313.4
2017-Mar-27 00:33N 54°59' W 000°02'3113.8
2017-Mar-26 22:19N 55°13' E 000°46'1013.7
2017-Mar-26 21:33N 55°18' E 001°03'32115.2
2017-Mar-26 00:23N 57°38' E 009°46'1616.0
2017-Mar-25 23:21N 57°44' E 010°14'1316.0
2017-Mar-25 22:33N 57°48' E 010°37'1615.5
2017-Mar-25 21:33N 57°40' E 011°02'1716.8
2017-Mar-25 20:33N 57°28' E 011°25'1616.3
2017-Mar-25 19:33N 57°13' E 011°35'1716.7
2017-Mar-25 18:33N 56°57' E 011°46'1515.5
2017-Mar-25 17:33N 56°42' E 011°50'9215.4
2017-Mar-25 11:33N 55°13' E 011°06'1616.0
2017-Mar-25 10:33N 54°58' E 010°59'1615.5
2017-Mar-25 09:33N 54°43' E 010°53'1616.2
2017-Mar-25 08:33N 54°34' E 011°17'1616.4
2017-Mar-25 07:33N 54°28' E 011°43'1616.1
2017-Mar-25 06:33N 54°27' E 012°11'1715.3
2017-Mar-25 05:28N 54°41' E 012°27'1516.0
2017-Mar-25 04:32N 54°49' E 012°49'3316.5
2017-Mar-25 02:32N 55°00' E 013°42'1716.1
2017-Mar-25 01:29N 55°08' E 014°08'1616.7
2017-Mar-25 00:33N 55°20' E 014°26'1616.4
2017-Mar-24 23:33N 55°31' E 014°47'1616.4
2017-Mar-24 22:33N 55°39' E 015°13'1716.5
2017-Mar-24 21:33N 55°47' E 015°38'1616.5
2017-Mar-24 20:33N 55°55' E 016°04'1616.1
2017-Mar-24 19:33N 56°03' E 016°29'1616.1
2017-Mar-24 18:33N 56°12' E 016°53'1616.2
2017-Mar-24 17:33N 56°22' E 017°16'  
2017-Mar-21 01:16N 59°60' E 026°19'1115.1
2017-Mar-21 00:33N 60°01' E 026°40'4814.4
2017-Mar-20 21:15N 60°08' E 028°14'1115.0
2017-Mar-20 20:33N 60°03' E 028°33'2814.1
2017-Mar-20 18:33N 60°02' E 029°29'7 6.9
2017-Mar-20 17:32N 60°00' E 029°43'0 0.3
2017-Mar-20 16:32N 60°00' E 029°43'0 0.0
2017-Mar-20 15:32N 60°00' E 029°43'0 0.0
2017-Mar-20 14:29N 60°00' E 029°43'0 0.0
2017-Mar-20 12:32N 60°00' E 029°43'0 0.0
2017-Mar-20 10:08N 60°00' E 029°43'0 0.0
2017-Mar-20 09:32N 60°00' E 029°43'0 0.0
2017-Mar-20 08:32N 60°00' E 029°43'0 0.0
2017-Mar-20 07:32N 60°00' E 029°43'0 0.0
2017-Mar-20 06:29N 60°00' E 029°43'1 0.6
2017-Mar-20 05:32N 59°60' E 029°43'0 0.4
2017-Mar-20 04:34N 59°59' E 029°42'10 9.3
2017-Mar-20 03:26N 60°02' E 029°22'1011.7
2017-Mar-20 02:33N 60°02' E 029°01'1212.5
2017-Mar-20 01:33N 60°02' E 028°36'1313.0
2017-Mar-20 00:33N 60°08' E 028°12'1413.7
2017-Mar-19 23:33N 60°10' E 027°45'1414.0
2017-Mar-19 22:33N 60°03' E 027°21'1812.8
2017-Mar-19 21:08N 59°59' E 026°46'915.5
2017-Mar-19 20:33N 59°58' E 026°28'  

Dump ship's entire track history